Graig Rotterdam — 2GAQ4 — position and weather

sailwx.info

Track history (hours):
 
Tides and Currents Weather Stations Pressure Air Temp Water Temp Dewpoint Dewpoint Depression Visibility Wind Speed Wind Dir Waves Ship Positions

Graig Rotterdam

Last reported at 2018-Jan-21 00:30 UTC. Time now 2018-Jan-21 00:49 UTC.
Position N 50°58' E 001°28'.

Length 180 m; draft 9.6 m.

Type: Cargo ship. MMSI: 235095815.

Date/timePositionNaut miles runAvg speedWind from/ knotsBaromVisibWave heightAir tempDewpointWater temp
2018-Jan-21 00:30N 50°58' E 001°28'612.4
2018-Jan-21 00:00N 50°52' E 001°24'612.1
2018-Jan-20 23:29N 50°46' E 001°22'4511.6
2018-Jan-20 19:36N 50°22' E 000°21'111.9
2018-Jan-20 19:29N 50°22' E 000°19'611.7
2018-Jan-20 19:00N 50°21' E 000°11'611.8
2018-Jan-20 18:30N 50°20' E 000°02'611.5
2018-Jan-20 18:00N 50°18' W 000°07'611.4
2018-Jan-20 17:30N 50°17' W 000°16'8912.5
2018-Jan-20 10:22N 49°52' W 002°29'614.6
2018-Jan-20 09:58N 49°51' W 002°38'714.7
2018-Jan-20 09:29N 49°50' W 002°49'1614.2
2018-Jan-20 08:19N 49°42' W 003°12'  
Track history (hours):
 
Tides and Currents Weather Stations Pressure Air Temp Water Temp Dewpoint Dewpoint Depression Visibility Wind Speed Wind Dir Waves Ship Positions

Graig Rotterdam

Last reported at 2018-Jan-21 00:30 UTC. Time now 2018-Jan-21 00:49 UTC.
Position N 50°58' E 001°28'.

Length 180 m; draft 9.6 m.

Type: Cargo ship. MMSI: 235095815.

Date/timePositionNaut miles runAvg speedWind from/ knotsBaromVisibWave heightAir tempDewpointWater temp
2018-Jan-21 00:30N 50°58' E 001°28'612.4
2018-Jan-21 00:00N 50°52' E 001°24'612.1
2018-Jan-20 23:29N 50°46' E 001°22'4511.6
2018-Jan-20 19:36N 50°22' E 000°21'111.9
2018-Jan-20 19:29N 50°22' E 000°19'611.7
2018-Jan-20 19:00N 50°21' E 000°11'611.8
2018-Jan-20 18:30N 50°20' E 000°02'611.5
2018-Jan-20 18:00N 50°18' W 000°07'611.4
2018-Jan-20 17:30N 50°17' W 000°16'8912.5
2018-Jan-20 10:22N 49°52' W 002°29'614.6
2018-Jan-20 09:58N 49°51' W 002°38'714.7
2018-Jan-20 09:29N 49°50' W 002°49'1614.2
2018-Jan-20 08:19N 49°42' W 003°12'  

Dump ship's entire track history